sensor_id;sensor_type;location;lat;lon;timestamp;P1;durP1;ratioP1;P2;durP2;ratioP2
63350;SDS011;74263;51.058;17.040;2024-03-23T00:54:40;29.38;;;15.05;;
63350;SDS011;74263;51.058;17.040;2024-03-23T00:59:40;29.88;;;14.35;;
63350;SDS011;74263;51.058;17.040;2024-03-23T01:04:41;24.77;;;12.30;;
63350;SDS011;74263;51.058;17.040;2024-03-23T01:09:41;26.00;;;12.88;;
63350;SDS011;74263;51.058;17.040;2024-03-23T01:14:42;26.65;;;12.82;;
63350;SDS011;74263;51.058;17.040;2024-03-23T01:19:42;22.27;;;11.75;;
63350;SDS011;74263;51.058;17.040;2024-03-23T01:24:43;22.85;;;13.00;;
63350;SDS011;74263;51.058;17.040;2024-03-23T01:29:44;26.35;;;12.90;;
63350;SDS011;74263;51.058;17.040;2024-03-23T01:34:45;29.40;;;16.00;;
63350;SDS011;74263;51.058;17.040;2024-03-23T01:39:46;25.23;;;12.77;;
63350;SDS011;74263;51.058;17.040;2024-03-23T01:44:47;21.90;;;12.05;;
63350;SDS011;74263;51.058;17.040;2024-03-23T01:49:48;20.17;;;11.40;;
63350;SDS011;74263;51.058;17.040;2024-03-23T01:54:48;21.65;;;12.10;;
63350;SDS011;74263;51.058;17.040;2024-03-23T01:59:49;22.00;;;13.20;;
63350;SDS011;74263;51.058;17.040;2024-03-23T02:04:50;20.83;;;12.23;;
63350;SDS011;74263;51.058;17.040;2024-03-23T02:09:51;24.58;;;12.50;;
63350;SDS011;74263;51.058;17.040;2024-03-23T02:14:51;21.05;;;11.48;;
63350;SDS011;74263;51.058;17.040;2024-03-23T02:19:52;24.60;;;13.07;;
63350;SDS011;74263;51.058;17.040;2024-03-23T02:24:52;26.17;;;13.40;;
63350;SDS011;74263;51.058;17.040;2024-03-23T02:29:54;20.75;;;11.38;;
63350;SDS011;74263;51.058;17.040;2024-03-23T02:34:54;23.45;;;11.27;;
63350;SDS011;74263;51.058;17.040;2024-03-23T02:39:55;38.22;;;17.15;;
63350;SDS011;74263;51.058;17.040;2024-03-23T02:44:55;43.85;;;18.20;;
63350;SDS011;74263;51.058;17.040;2024-03-23T02:49:56;59.42;;;21.45;;
63350;SDS011;74263;51.058;17.040;2024-03-23T02:54:56;38.35;;;17.17;;
63350;SDS011;74263;51.058;17.040;2024-03-23T02:59:57;32.60;;;15.73;;
63350;SDS011;74263;51.058;17.040;2024-03-23T03:04:59;26.88;;;13.00;;
63350;SDS011;74263;51.058;17.040;2024-03-23T03:09:59;31.52;;;14.20;;
63350;SDS011;74263;51.058;17.040;2024-03-23T03:15:00;21.75;;;12.93;;
63350;SDS011;74263;51.058;17.040;2024-03-23T03:20:00;31.73;;;16.02;;
63350;SDS011;74263;51.058;17.040;2024-03-23T03:25:01;28.42;;;14.55;;
63350;SDS011;74263;51.058;17.040;2024-03-23T03:30:01;24.73;;;13.32;;
63350;SDS011;74263;51.058;17.040;2024-03-23T03:35:02;22.10;;;12.48;;
63350;SDS011;74263;51.058;17.040;2024-03-23T03:40:03;22.00;;;12.45;;
63350;SDS011;74263;51.058;17.040;2024-03-23T03:45:04;23.58;;;12.93;;
63350;SDS011;74263;51.058;17.040;2024-03-23T03:50:05;23.13;;;12.63;;
63350;SDS011;74263;51.058;17.040;2024-03-23T03:55:11;22.55;;;11.90;;
63350;SDS011;74263;51.058;17.040;2024-03-23T04:00:12;22.13;;;12.60;;
63350;SDS011;74263;51.058;17.040;2024-03-23T04:05:13;23.02;;;12.65;;
63350;SDS011;74263;51.058;17.040;2024-03-23T04:10:13;21.55;;;12.18;;
63350;SDS011;74263;51.058;17.040;2024-03-23T04:15:14;24.95;;;14.75;;
63350;SDS011;74263;51.058;17.040;2024-03-23T04:20:15;26.08;;;14.15;;
63350;SDS011;74263;51.058;17.040;2024-03-23T04:25:15;24.95;;;12.77;;
63350;SDS011;74263;51.058;17.040;2024-03-23T04:30:16;23.73;;;12.63;;
63350;SDS011;74263;51.058;17.040;2024-03-23T04:35:16;25.17;;;13.07;;
63350;SDS011;74263;51.058;17.040;2024-03-23T04:40:17;24.45;;;13.25;;
63350;SDS011;74263;51.058;17.040;2024-03-23T04:45:18;22.45;;;12.63;;
63350;SDS011;74263;51.058;17.040;2024-03-23T04:50:18;22.75;;;13.80;;
63350;SDS011;74263;51.058;17.040;2024-03-23T04:55:19;29.83;;;13.82;;
63350;SDS011;74263;51.058;17.040;2024-03-23T05:05:57;25.55;;;14.07;;
63350;SDS011;74263;51.058;17.040;2024-03-23T05:10:58;21.55;;;12.63;;
63350;SDS011;74263;51.058;17.040;2024-03-23T05:15:58;21.60;;;11.88;;
63350;SDS011;74263;51.058;17.040;2024-03-23T05:20:59;25.45;;;13.82;;
63350;SDS011;74263;51.058;17.040;2024-03-23T05:25:59;24.92;;;13.32;;
63350;SDS011;74263;51.058;17.040;2024-03-23T05:31:00;28.42;;;14.40;;
63350;SDS011;74263;51.058;17.040;2024-03-23T05:36:01;23.20;;;13.00;;
63350;SDS011;74263;51.058;17.040;2024-03-23T05:41:02;25.30;;;13.63;;
63350;SDS011;74263;51.058;17.040;2024-03-23T05:46:02;22.75;;;13.18;;
63350;SDS011;74263;51.058;17.040;2024-03-23T05:51:03;24.55;;;13.27;;
63350;SDS011;74263;51.058;17.040;2024-03-23T05:56:04;22.83;;;13.18;;
63350;SDS011;74263;51.058;17.040;2024-03-23T06:01:04;26.50;;;14.77;;
63350;SDS011;74263;51.058;17.040;2024-03-23T06:06:05;26.10;;;13.93;;
63350;SDS011;74263;51.058;17.040;2024-03-23T06:11:05;22.17;;;13.02;;
63350;SDS011;74263;51.058;17.040;2024-03-23T06:16:06;27.58;;;14.15;;
63350;SDS011;74263;51.058;17.040;2024-03-23T06:21:12;25.75;;;14.27;;
63350;SDS011;74263;51.058;17.040;2024-03-23T06:26:13;28.85;;;15.57;;
63350;SDS011;74263;51.058;17.040;2024-03-23T06:31:14;28.52;;;15.30;;
63350;SDS011;74263;51.058;17.040;2024-03-23T06:36:14;27.38;;;14.82;;
63350;SDS011;74263;51.058;17.040;2024-03-23T06:41:15;26.65;;;15.02;;
63350;SDS011;74263;51.058;17.040;2024-03-23T06:46:15;28.33;;;15.05;;
63350;SDS011;74263;51.058;17.040;2024-03-23T06:51:16;32.20;;;14.88;;
63350;SDS011;74263;51.058;17.040;2024-03-23T06:56:16;23.55;;;14.55;;
63350;SDS011;74263;51.058;17.040;2024-03-23T07:01:17;26.08;;;15.02;;
63350;SDS011;74263;51.058;17.040;2024-03-23T07:06:17;29.30;;;15.82;;
63350;SDS011;74263;51.058;17.040;2024-03-23T07:11:21;23.45;;;13.77;;
63350;SDS011;74263;51.058;17.040;2024-03-23T07:16:23;25.75;;;15.10;;
63350;SDS011;74263;51.058;17.040;2024-03-23T07:21:23;30.67;;;16.45;;
63350;SDS011;74263;51.058;17.040;2024-03-23T07:26:24;26.95;;;15.07;;
63350;SDS011;74263;51.058;17.040;2024-03-23T07:31:24;24.80;;;12.32;;
63350;SDS011;74263;51.058;17.040;2024-03-23T07:36:25;36.45;;;15.93;;
63350;SDS011;74263;51.058;17.040;2024-03-23T07:41:26;27.92;;;14.27;;
63350;SDS011;74263;51.058;17.040;2024-03-23T07:46:26;23.30;;;13.02;;
63350;SDS011;74263;51.058;17.040;2024-03-23T07:51:27;23.00;;;13.65;;
63350;SDS011;74263;51.058;17.040;2024-03-23T07:56:27;21.27;;;12.15;;
63350;SDS011;74263;51.058;17.040;2024-03-23T08:01:28;20.13;;;11.25;;
63350;SDS011;74263;51.058;17.040;2024-03-23T08:06:29;15.25;;;9.65;;
63350;SDS011;74263;51.058;17.040;2024-03-23T08:11:29;15.75;;;9.65;;
63350;SDS011;74263;51.058;17.040;2024-03-23T08:16:30;16.20;;;9.90;;
63350;SDS011;74263;51.058;17.040;2024-03-23T08:21:31;21.02;;;12.73;;
63350;SDS011;74263;51.058;17.040;2024-03-23T08:26:31;19.35;;;11.98;;
63350;SDS011;74263;51.058;17.040;2024-03-23T08:31:32;17.40;;;10.45;;
63350;SDS011;74263;51.058;17.040;2024-03-23T09:09:10;20.70;;;12.00;;
63350;SDS011;74263;51.058;17.040;2024-03-23T09:14:11;16.20;;;10.48;;
63350;SDS011;74263;51.058;17.040;2024-03-23T09:19:12;17.17;;;10.38;;
63350;SDS011;74263;51.058;17.040;2024-03-23T09:24:12;13.57;;;9.10;;
63350;SDS011;74263;51.058;17.040;2024-03-23T09:29:13;18.92;;;11.85;;
63350;SDS011;74263;51.058;17.040;2024-03-23T09:34:13;21.58;;;13.43;;
63350;SDS011;74263;51.058;17.040;2024-03-23T09:39:14;18.42;;;10.77;;
63350;SDS011;74263;51.058;17.040;2024-03-23T09:44:14;15.88;;;10.55;;
63350;SDS011;74263;51.058;17.040;2024-03-23T09:49:15;16.85;;;10.98;;
63350;SDS011;74263;51.058;17.040;2024-03-23T09:54:16;18.50;;;10.30;;
63350;SDS011;74263;51.058;17.040;2024-03-23T09:59:16;15.77;;;9.93;;
63350;SDS011;74263;51.058;17.040;2024-03-23T10:04:38;20.27;;;10.23;;
63350;SDS011;74263;51.058;17.040;2024-03-23T10:09:38;15.30;;;10.07;;
63350;SDS011;74263;51.058;17.040;2024-03-23T10:14:38;17.90;;;9.98;;
63350;SDS011;74263;51.058;17.040;2024-03-23T10:19:39;17.80;;;10.10;;
63350;SDS011;74263;51.058;17.040;2024-03-23T10:24:40;16.95;;;9.75;;
63350;SDS011;74263;51.058;17.040;2024-03-23T10:29:41;19.33;;;10.55;;
63350;SDS011;74263;51.058;17.040;2024-03-23T10:34:42;20.15;;;10.98;;
63350;SDS011;74263;51.058;17.040;2024-03-23T10:39:42;13.27;;;9.63;;
63350;SDS011;74263;51.058;17.040;2024-03-23T10:44:43;17.08;;;10.80;;
63350;SDS011;74263;51.058;17.040;2024-03-23T10:49:44;18.05;;;10.77;;
63350;SDS011;74263;51.058;17.040;2024-03-23T10:54:44;11.23;;;7.32;;
63350;SDS011;74263;51.058;17.040;2024-03-23T10:59:46;14.50;;;7.72;;
63350;SDS011;74263;51.058;17.040;2024-03-23T11:04:47;11.15;;;7.28;;
63350;SDS011;74263;51.058;17.040;2024-03-23T11:09:47;12.20;;;8.82;;
63350;SDS011;74263;51.058;17.040;2024-03-23T11:14:51;34.05;;;15.93;;
63350;SDS011;74263;51.058;17.040;2024-03-23T11:20:00;19.17;;;9.43;;
63350;SDS011;74263;51.058;17.040;2024-03-23T11:25:01;14.75;;;9.50;;
63350;SDS011;74263;51.058;17.040;2024-03-23T11:30:20;15.55;;;9.20;;
63350;SDS011;74263;51.058;17.040;2024-03-23T11:35:34;6.80;;;5.35;;
63350;SDS011;74263;51.058;17.040;2024-03-23T11:40:44;8.77;;;6.05;;
63350;SDS011;74263;51.058;17.040;2024-03-23T11:45:46;12.82;;;6.20;;
63350;SDS011;74263;51.058;17.040;2024-03-23T11:50:48;7.75;;;5.65;;
63350;SDS011;74263;51.058;17.040;2024-03-23T11:55:52;10.80;;;6.97;;
63350;SDS011;74263;51.058;17.040;2024-03-23T12:00:55;9.73;;;6.75;;
63350;SDS011;74263;51.058;17.040;2024-03-23T12:05:57;11.18;;;6.55;;
63350;SDS011;74263;51.058;17.040;2024-03-23T12:11:05;9.88;;;5.78;;
63350;SDS011;74263;51.058;17.040;2024-03-23T12:16:10;11.88;;;6.63;;
63350;SDS011;74263;51.058;17.040;2024-03-23T12:21:11;9.02;;;5.03;;
63350;SDS011;74263;51.058;17.040;2024-03-23T12:26:11;7.88;;;4.78;;
63350;SDS011;74263;51.058;17.040;2024-03-23T12:31:13;7.53;;;4.33;;
63350;SDS011;74263;51.058;17.040;2024-03-23T12:36:14;10.82;;;6.35;;
63350;SDS011;74263;51.058;17.040;2024-03-23T12:41:14;10.25;;;6.57;;
63350;SDS011;74263;51.058;17.040;2024-03-23T12:46:15;9.10;;;6.43;;
63350;SDS011;74263;51.058;17.040;2024-03-23T12:51:16;8.55;;;6.63;;
63350;SDS011;74263;51.058;17.040;2024-03-23T12:56:16;5.68;;;4.50;;
63350;SDS011;74263;51.058;17.040;2024-03-23T13:01:17;6.20;;;3.75;;
63350;SDS011;74263;51.058;17.040;2024-03-23T13:06:19;7.47;;;4.17;;
63350;SDS011;74263;51.058;17.040;2024-03-23T13:11:19;10.43;;;3.70;;
63350;SDS011;74263;51.058;17.040;2024-03-23T13:16:20;11.80;;;4.07;;
63350;SDS011;74263;51.058;17.040;2024-03-23T13:21:20;8.32;;;5.57;;
63350;SDS011;74263;51.058;17.040;2024-03-23T13:26:21;6.47;;;4.57;;
63350;SDS011;74263;51.058;17.040;2024-03-23T13:31:22;8.43;;;5.30;;
63350;SDS011;74263;51.058;17.040;2024-03-23T13:36:23;6.72;;;4.90;;
63350;SDS011;74263;51.058;17.040;2024-03-23T13:41:23;6.28;;;3.97;;
63350;SDS011;74263;51.058;17.040;2024-03-23T13:46:24;6.95;;;3.08;;
63350;SDS011;74263;51.058;17.040;2024-03-23T13:51:25;5.07;;;3.30;;
63350;SDS011;74263;51.058;17.040;2024-03-23T13:56:27;3.28;;;2.78;;
63350;SDS011;74263;51.058;17.040;2024-03-23T14:01:28;8.00;;;4.00;;
63350;SDS011;74263;51.058;17.040;2024-03-23T14:06:28;3.92;;;2.60;;
63350;SDS011;74263;51.058;17.040;2024-03-23T14:11:29;4.78;;;2.83;;
63350;SDS011;74263;51.058;17.040;2024-03-23T14:16:30;4.57;;;1.10;;
63350;SDS011;74263;51.058;17.040;2024-03-23T14:21:31;1.38;;;1.27;;
63350;SDS011;74263;51.058;17.040;2024-03-23T14:26:32;1.05;;;1.05;;
63350;SDS011;74263;51.058;17.040;2024-03-23T14:31:32;0.95;;;0.73;;
63350;SDS011;74263;51.058;17.040;2024-03-23T14:36:33;0.70;;;0.70;;
63350;SDS011;74263;51.058;17.040;2024-03-23T14:41:33;0.80;;;0.70;;
63350;SDS011;74263;51.058;17.040;2024-03-23T14:46:34;0.63;;;0.52;;
63350;SDS011;74263;51.058;17.040;2024-03-23T14:51:34;2.65;;;0.77;;
63350;SDS011;74263;51.058;17.040;2024-03-23T14:56:35;1.92;;;0.70;;
63350;SDS011;74263;51.058;17.040;2024-03-23T15:01:36;0.90;;;0.90;;
63350;SDS011;74263;51.058;17.040;2024-03-23T15:06:39;2.20;;;1.30;;
63350;SDS011;74263;51.058;17.040;2024-03-23T15:11:40;8.15;;;4.03;;
63350;SDS011;74263;51.058;17.040;2024-03-23T15:16:42;2.40;;;2.20;;
63350;SDS011;74263;51.058;17.040;2024-03-23T15:21:45;1.83;;;1.65;;
63350;SDS011;74263;51.058;17.040;2024-03-23T15:26:46;1.90;;;1.80;;
63350;SDS011;74263;51.058;17.040;2024-03-23T15:31:47;1.50;;;1.23;;
63350;SDS011;74263;51.058;17.040;2024-03-23T15:36:48;1.08;;;1.08;;
63350;SDS011;74263;51.058;17.040;2024-03-23T15:41:49;1.50;;;1.40;;
63350;SDS011;74263;51.058;17.040;2024-03-23T15:46:50;1.58;;;1.48;;
63350;SDS011;74263;51.058;17.040;2024-03-23T15:51:51;1.88;;;1.65;;
63350;SDS011;74263;51.058;17.040;2024-03-23T15:56:51;1.70;;;1.60;;
63350;SDS011;74263;51.058;17.040;2024-03-23T16:01:52;2.63;;;1.70;;
63350;SDS011;74263;51.058;17.040;2024-03-23T16:06:52;1.42;;;1.20;;
63350;SDS011;74263;51.058;17.040;2024-03-23T16:11:53;1.30;;;1.20;;
63350;SDS011;74263;51.058;17.040;2024-03-23T16:16:54;1.25;;;1.08;;
63350;SDS011;74263;51.058;17.040;2024-03-23T16:21:54;1.30;;;1.13;;
63350;SDS011;74263;51.058;17.040;2024-03-23T16:26:55;2.28;;;1.77;;
63350;SDS011;74263;51.058;17.040;2024-03-23T16:31:55;2.72;;;2.08;;
63350;SDS011;74263;51.058;17.040;2024-03-23T16:36:56;1.70;;;1.60;;
63350;SDS011;74263;51.058;17.040;2024-03-23T16:41:56;2.45;;;1.58;;
63350;SDS011;74263;51.058;17.040;2024-03-23T16:46:57;2.28;;;1.33;;
63350;SDS011;74263;51.058;17.040;2024-03-23T16:51:57;2.55;;;1.42;;
63350;SDS011;74263;51.058;17.040;2024-03-23T16:56:58;2.00;;;1.13;;
63350;SDS011;74263;51.058;17.040;2024-03-23T17:01:59;2.30;;;1.38;;
63350;SDS011;74263;51.058;17.040;2024-03-23T17:06:59;1.98;;;1.25;;
63350;SDS011;74263;51.058;17.040;2024-03-23T17:12:00;2.25;;;1.30;;
63350;SDS011;74263;51.058;17.040;2024-03-23T17:17:01;2.83;;;1.80;;
63350;SDS011;74263;51.058;17.040;2024-03-23T17:22:01;2.17;;;1.73;;
63350;SDS011;74263;51.058;17.040;2024-03-23T17:27:02;3.20;;;1.90;;
63350;SDS011;74263;51.058;17.040;2024-03-23T17:32:03;1.55;;;1.42;;
63350;SDS011;74263;51.058;17.040;2024-03-23T17:37:03;5.25;;;1.58;;
63350;SDS011;74263;51.058;17.040;2024-03-23T17:42:04;4.13;;;2.33;;
63350;SDS011;74263;51.058;17.040;2024-03-23T17:47:05;2.75;;;2.10;;
63350;SDS011;74263;51.058;17.040;2024-03-23T17:52:09;4.05;;;2.55;;
63350;SDS011;74263;51.058;17.040;2024-03-23T17:57:10;2.72;;;1.63;;
63350;SDS011;74263;51.058;17.040;2024-03-23T18:02:10;3.60;;;2.05;;
63350;SDS011;74263;51.058;17.040;2024-03-23T18:07:11;6.45;;;2.80;;
63350;SDS011;74263;51.058;17.040;2024-03-23T18:12:12;3.58;;;2.60;;
63350;SDS011;74263;51.058;17.040;2024-03-23T18:17:12;6.63;;;2.80;;
63350;SDS011;74263;51.058;17.040;2024-03-23T18:22:13;5.90;;;2.53;;
63350;SDS011;74263;51.058;17.040;2024-03-23T18:27:13;7.07;;;2.95;;
63350;SDS011;74263;51.058;17.040;2024-03-23T18:32:14;5.22;;;2.63;;
63350;SDS011;74263;51.058;17.040;2024-03-23T18:37:14;6.40;;;3.00;;
63350;SDS011;74263;51.058;17.040;2024-03-23T18:42:18;5.00;;;2.90;;
63350;SDS011;74263;51.058;17.040;2024-03-23T18:47:19;7.05;;;2.60;;
63350;SDS011;74263;51.058;17.040;2024-03-23T18:52:19;6.18;;;3.00;;
63350;SDS011;74263;51.058;17.040;2024-03-23T18:57:20;8.50;;;3.50;;
63350;SDS011;74263;51.058;17.040;2024-03-23T19:02:20;6.25;;;3.63;;
63350;SDS011;74263;51.058;17.040;2024-03-23T19:07:24;8.10;;;4.07;;
63350;SDS011;74263;51.058;17.040;2024-03-23T19:12:25;8.27;;;5.07;;
63350;SDS011;74263;51.058;17.040;2024-03-23T19:17:26;11.93;;;5.35;;
63350;SDS011;74263;51.058;17.040;2024-03-23T19:22:26;6.78;;;4.30;;
63350;SDS011;74263;51.058;17.040;2024-03-23T19:27:27;10.68;;;4.85;;
63350;SDS011;74263;51.058;17.040;2024-03-23T19:32:27;12.02;;;5.25;;
63350;SDS011;74263;51.058;17.040;2024-03-23T19:37:28;14.18;;;6.65;;
63350;SDS011;74263;51.058;17.040;2024-03-23T19:42:28;12.07;;;5.80;;
63350;SDS011;74263;51.058;17.040;2024-03-23T19:47:29;11.65;;;5.55;;
63350;SDS011;74263;51.058;17.040;2024-03-23T19:52:30;11.55;;;5.78;;
63350;SDS011;74263;51.058;17.040;2024-03-23T19:57:31;10.40;;;6.13;;
63350;SDS011;74263;51.058;17.040;2024-03-23T20:02:31;8.43;;;5.53;;
63350;SDS011;74263;51.058;17.040;2024-03-23T20:07:32;8.75;;;6.03;;
63350;SDS011;74263;51.058;17.040;2024-03-23T20:12:32;13.10;;;7.78;;
63350;SDS011;74263;51.058;17.040;2024-03-23T20:17:33;13.98;;;6.82;;
63350;SDS011;74263;51.058;17.040;2024-03-23T20:22:33;16.45;;;8.48;;
63350;SDS011;74263;51.058;17.040;2024-03-23T20:27:34;12.45;;;7.13;;
63350;SDS011;74263;51.058;17.040;2024-03-23T20:32:35;15.15;;;7.93;;
63350;SDS011;74263;51.058;17.040;2024-03-23T20:37:36;15.30;;;8.20;;
63350;SDS011;74263;51.058;17.040;2024-03-23T20:42:36;16.05;;;8.88;;
63350;SDS011;74263;51.058;17.040;2024-03-23T20:47:37;11.93;;;6.53;;
63350;SDS011;74263;51.058;17.040;2024-03-23T20:52:37;42.63;;;17.88;;
63350;SDS011;74263;51.058;17.040;2024-03-23T20:57:38;29.75;;;13.10;;
63350;SDS011;74263;51.058;17.040;2024-03-23T21:02:38;31.77;;;14.73;;
63350;SDS011;74263;51.058;17.040;2024-03-23T21:07:39;32.63;;;14.38;;
63350;SDS011;74263;51.058;17.040;2024-03-23T21:12:39;30.33;;;14.48;;
63350;SDS011;74263;51.058;17.040;2024-03-23T21:17:40;27.63;;;14.07;;
63350;SDS011;74263;51.058;17.040;2024-03-23T21:22:41;20.63;;;10.15;;
63350;SDS011;74263;51.058;17.040;2024-03-23T21:27:42;28.20;;;12.68;;
63350;SDS011;74263;51.058;17.040;2024-03-23T21:32:42;23.95;;;11.48;;
63350;SDS011;74263;51.058;17.040;2024-03-23T21:37:43;23.88;;;12.43;;
63350;SDS011;74263;51.058;17.040;2024-03-23T21:42:43;23.10;;;10.50;;
63350;SDS011;74263;51.058;17.040;2024-03-23T21:47:44;22.08;;;10.25;;
63350;SDS011;74263;51.058;17.040;2024-03-23T21:52:44;20.60;;;9.07;;
63350;SDS011;74263;51.058;17.040;2024-03-23T21:57:46;18.70;;;9.40;;
63350;SDS011;74263;51.058;17.040;2024-03-23T22:02:47;20.43;;;9.70;;
63350;SDS011;74263;51.058;17.040;2024-03-23T22:07:47;19.20;;;9.35;;
63350;SDS011;74263;51.058;17.040;2024-03-23T22:12:48;17.40;;;9.38;;
63350;SDS011;74263;51.058;17.040;2024-03-23T22:17:49;21.98;;;10.48;;
63350;SDS011;74263;51.058;17.040;2024-03-23T22:22:50;18.88;;;9.20;;
63350;SDS011;74263;51.058;17.040;2024-03-23T22:27:50;19.30;;;9.38;;
63350;SDS011;74263;51.058;17.040;2024-03-23T22:32:51;18.63;;;8.35;;
63350;SDS011;74263;51.058;17.040;2024-03-23T22:37:51;14.77;;;8.50;;
63350;SDS011;74263;51.058;17.040;2024-03-23T22:42:52;19.35;;;9.95;;
63350;SDS011;74263;51.058;17.040;2024-03-23T22:47:52;18.38;;;8.52;;
63350;SDS011;74263;51.058;17.040;2024-03-23T22:52:53;12.32;;;6.78;;
63350;SDS011;74263;51.058;17.040;2024-03-23T22:57:53;10.52;;;6.22;;
63350;SDS011;74263;51.058;17.040;2024-03-23T23:02:54;13.10;;;6.45;;
63350;SDS011;74263;51.058;17.040;2024-03-23T23:07:54;9.45;;;6.18;;
63350;SDS011;74263;51.058;17.040;2024-03-23T23:12:56;11.60;;;6.47;;
63350;SDS011;74263;51.058;17.040;2024-03-23T23:17:56;11.65;;;6.22;;
63350;SDS011;74263;51.058;17.040;2024-03-23T23:22:57;15.77;;;7.03;;
63350;SDS011;74263;51.058;17.040;2024-03-23T23:27:57;15.07;;;7.03;;
63350;SDS011;74263;51.058;17.040;2024-03-23T23:32:58;12.98;;;6.65;;
63350;SDS011;74263;51.058;17.040;2024-03-23T23:37:59;15.63;;;6.72;;
63350;SDS011;74263;51.058;17.040;2024-03-23T23:42:59;13.00;;;7.28;;
63350;SDS011;74263;51.058;17.040;2024-03-23T23:48:00;11.88;;;6.88;;
63350;SDS011;74263;51.058;17.040;2024-03-23T23:53:00;14.02;;;7.20;;
63350;SDS011;74263;51.058;17.040;2024-03-23T23:58:01;13.73;;;6.82;;
